Time;durP1;ratioP1;P1;durP2;ratioP2;P2;SDS_P1;SDS_P2;PMS_P1;PMS_P2;Temp;Humidity;BMP_temperature;BMP_pressure;BME280_temperature;BME280_humidity;BME280_pressure;Samples;Min_cycle;Max_cycle;Signal;HPM_P1;HPM_P2
2023/05/25 00:02:15;;;;;;;9.67;4.60;;;;;;;10.64;100.00;102561.69;5090062;28;20066;-36
2023/05/25 00:04:40;;;;;;;7.95;4.00;;;;;;;10.69;100.00;102569.25;5090528;28;20017;-37
2023/05/25 00:07:06;;;;;;;8.55;3.63;;;;;;;10.64;100.00;102563.53;5090186;28;20430;-36
2023/05/25 00:09:31;;;;;;;9.02;3.47;;;;;;;10.65;100.00;102565.25;5090101;28;20479;-36
2023/05/25 00:11:58;;;;;;;7.33;3.87;;;;;;;10.53;100.00;102557.59;5080539;28;20092;-36
2023/05/25 00:14:24;;;;;;;7.75;3.97;;;;;;;10.58;100.00;102567.84;5076201;28;20035;-36
2023/05/25 00:16:50;;;;;;;11.02;3.72;;;;;;;10.55;100.00;102558.25;5076001;28;20029;-36
2023/05/25 00:19:17;;;;;;;9.32;4.00;;;;;;;10.50;100.00;102560.69;5075898;28;20461;-36
2023/05/25 00:21:44;;;;;;;7.43;3.42;;;;;;;10.47;100.00;102555.66;5076220;28;20055;-36
2023/05/25 00:24:10;;;;;;;8.77;3.60;;;;;;;10.49;100.00;102564.44;5076092;28;20021;-36
2023/05/25 00:26:35;;;;;;;10.30;3.92;;;;;;;10.44;100.00;102560.59;5076658;28;20420;-36
2023/05/25 00:29:02;;;;;;;5.55;3.10;;;;;;;10.48;100.00;102564.59;5075988;28;20024;-36
2023/05/25 00:31:28;;;;;;;6.75;3.58;;;;;;;10.47;100.00;102571.88;5075962;28;20039;-36
2023/05/25 00:33:53;;;;;;;7.68;3.33;;;;;;;10.41;100.00;102564.53;5075901;28;20181;-36
2023/05/25 00:36:19;;;;;;;8.98;3.10;;;;;;;10.41;100.00;102560.97;5076189;28;20118;-36
2023/05/25 00:38:44;;;;;;;7.87;3.17;;;;;;;10.50;100.00;102567.97;5075533;28;20089;-36
2023/05/25 00:41:11;;;;;;;7.85;3.42;;;;;;;10.43;100.00;102573.28;5075701;28;20282;-36
2023/05/25 00:43:36;;;;;;;9.15;3.22;;;;;;;10.35;100.00;102572.56;5075772;28;20035;-36
2023/05/25 00:46:02;;;;;;;6.27;3.00;;;;;;;10.41;100.00;102574.50;5076067;28;20029;-36
2023/05/25 00:48:27;;;;;;;5.97;2.90;;;;;;;10.41;100.00;102575.34;5075426;28;20278;-36
2023/05/25 00:50:59;;;;;;;8.20;3.20;;;;;;;10.36;100.00;102566.94;5075668;28;20466;-36
2023/05/25 00:53:24;;;;;;;9.73;4.05;;;;;;;10.20;100.00;102556.28;5075644;28;20427;-36
2023/05/25 00:56:03;;;;;;;6.75;3.50;;;;;;;10.26;100.00;102566.41;5075533;28;20029;-36
2023/05/25 00:58:31;;;;;;;6.60;2.85;;;;;;;10.18;100.00;102563.75;5076096;28;20028;-36
2023/05/25 01:00:59;;;;;;;6.05;3.08;;;;;;;10.15;100.00;102572.22;5075999;28;20119;-36
2023/05/25 01:03:28;;;;;;;7.13;3.00;;;;;;;10.16;100.00;102571.22;5075387;28;20435;-36
2023/05/25 01:05:56;;;;;;;7.70;3.13;;;;;;;10.06;100.00;102583.13;5075588;28;20031;-36
2023/05/25 01:08:23;;;;;;;8.85;3.10;;;;;;;10.03;100.00;102583.50;5075220;28;20025;-36
2023/05/25 01:10:50;;;;;;;8.70;3.53;;;;;;;9.95;100.00;102585.44;5075283;28;20028;-36
2023/05/25 01:13:18;;;;;;;8.43;3.75;;;;;;;10.03;100.00;102586.19;5075141;28;20036;-36
2023/05/25 01:15:44;;;;;;;6.85;3.28;;;;;;;10.00;100.00;102581.19;5075420;28;20020;-36
2023/05/25 01:18:13;;;;;;;;;;;;;;;10.13;100.00;102577.81;5075743;28;20031;-36
2023/05/25 01:20:58;;;;;;;6.68;3.13;;;;;;;9.99;100.00;102584.06;5075751;28;19912;-36
2023/05/25 01:24:16;;;;;;;5.28;3.05;;;;;;;9.97;100.00;102589.66;5073705;28;20078;-36
2023/05/25 01:26:47;;;;;;;8.25;4.70;;;;;;;9.90;100.00;102594.09;5075766;28;20071;-36
2023/05/25 01:29:14;;;;;;;7.55;3.50;;;;;;;9.87;100.00;102602.59;5074916;28;20030;-36
2023/05/25 01:31:40;;;;;;;6.53;3.20;;;;;;;9.89;100.00;102595.13;5075107;28;20085;-36
2023/05/25 01:34:06;;;;;;;7.13;3.60;;;;;;;9.70;100.00;102598.34;5074535;28;20427;-36
2023/05/25 01:36:32;;;;;;;7.18;3.20;;;;;;;9.73;100.00;102603.41;5075046;28;20032;-36
2023/05/25 01:38:58;;;;;;;9.52;3.83;;;;;;;9.79;100.00;102608.06;5075088;28;20025;-36
2023/05/25 01:41:23;;;;;;;5.15;3.28;;;;;;;9.77;100.00;102602.00;5074935;28;20060;-36
2023/05/25 01:43:49;;;;;;;6.00;3.15;;;;;;;9.64;100.00;102601.78;5074511;28;20039;-36
2023/05/25 01:46:32;;;;;;;6.03;3.53;;;;;;;9.69;100.00;102605.63;5074815;28;20046;-36
2023/05/25 01:49:04;;;;;;;6.20;3.80;;;;;;;9.55;100.00;102595.59;5074509;28;20024;-36
2023/05/25 01:51:35;;;;;;;6.95;3.60;;;;;;;9.69;100.00;102602.91;5074721;28;20039;-36
2023/05/25 01:54:08;;;;;;;8.35;3.90;;;;;;;9.65;100.00;102611.56;5074617;28;20087;-36
2023/05/25 01:56:34;;;;;;;7.45;3.80;;;;;;;9.57;100.00;102614.34;5074654;28;20028;-36
2023/05/25 01:59:01;;;;;;;7.82;3.92;;;;;;;9.60;100.00;102603.16;5074286;28;20382;-36
2023/05/25 02:01:27;;;;;;;6.70;3.85;;;;;;;9.57;100.00;102608.94;5074238;28;20028;-36
2023/05/25 02:03:53;;;;;;;6.70;4.15;;;;;;;9.55;100.00;102603.69;5074145;28;20020;-36
2023/05/25 02:06:18;;;;;;;6.75;3.95;;;;;;;9.47;100.00;102611.88;5074143;28;20021;-36
2023/05/25 02:08:44;;;;;;;5.93;3.85;;;;;;;9.53;100.00;102603.06;5074054;28;20032;-36
2023/05/25 02:11:13;;;;;;;8.88;4.30;;;;;;;9.46;100.00;102593.97;5074349;28;20037;-37
2023/05/25 02:13:38;;;;;;;8.80;4.90;;;;;;;9.50;100.00;102604.25;5073949;28;20036;-36
2023/05/25 02:16:03;;;;;;;9.77;6.23;;;;;;;9.48;100.00;102603.59;5074377;28;20028;-36
2023/05/25 02:18:29;;;;;;;7.90;4.53;;;;;;;9.50;100.00;102604.25;5074477;28;20273;-37
2023/05/25 02:20:54;;;;;;;8.17;5.27;;;;;;;9.39;100.00;102606.53;5073972;28;20483;-36
2023/05/25 02:23:20;;;;;;;10.05;5.72;;;;;;;9.36;100.00;102601.50;5073582;28;20524;-37
2023/05/25 02:25:45;;;;;;;7.72;5.28;;;;;;;9.38;100.00;102607.56;5074465;28;20082;-37
2023/05/25 02:28:11;;;;;;;7.43;5.67;;;;;;;9.34;100.00;102603.53;5073841;28;20024;-37
2023/05/25 02:30:36;;;;;;;12.43;7.40;;;;;;;9.34;100.00;102608.94;5074090;28;20039;-37
2023/05/25 02:33:01;;;;;;;8.03;6.00;;;;;;;9.36;100.00;102601.50;5074340;28;20024;-37
2023/05/25 02:35:27;;;;;;;10.57;6.93;;;;;;;9.20;100.00;102591.66;5074055;28;20028;-36
2023/05/25 02:37:52;;;;;;;9.70;7.20;;;;;;;9.27;100.00;102592.59;5073447;28;20035;-36
2023/05/25 02:40:18;;;;;;;10.63;7.87;;;;;;;9.33;100.00;102596.47;5073311;28;20064;-37
2023/05/25 02:42:43;;;;;;;14.10;9.18;;;;;;;9.19;100.00;102598.09;5073593;28;20024;-37
2023/05/25 02:45:09;;;;;;;12.45;8.38;;;;;;;9.29;100.00;102604.91;5073627;28;20111;-36
2023/05/25 02:47:35;;;;;;;;;;;;;;;9.37;100.00;102604.03;5074522;28;20029;-36
2023/05/25 02:50:00;;;;;;;10.32;7.72;;;;;;;9.33;100.00;102601.88;5073537;28;19915;-37
2023/05/25 02:52:26;;;;;;;10.95;7.75;;;;;;;9.30;100.00;102592.25;5074364;28;20036;-37
2023/05/25 02:54:51;;;;;;;10.73;6.78;;;;;;;9.24;100.00;102601.91;5074299;28;20016;-37
2023/05/25 02:57:17;;;;;;;10.67;7.23;;;;;;;9.14;100.00;102598.63;5073827;28;20021;-37
2023/05/25 02:59:42;;;;;;;10.20;6.50;;;;;;;9.17;100.00;102605.50;5073761;28;20491;-36
2023/05/25 03:02:07;;;;;;;8.30;6.73;;;;;;;9.11;100.00;102617.84;5073767;28;20161;-36
2023/05/25 03:04:36;;;;;;;10.43;6.53;;;;;;;9.06;100.00;102612.16;5073142;28;20294;-36
2023/05/25 03:07:02;;;;;;;11.73;5.95;;;;;;;9.05;100.00;102610.47;5073145;28;20032;-36
2023/05/25 03:09:27;;;;;;;10.75;6.38;;;;;;;8.92;100.00;102611.03;5073135;28;20028;-37
2023/05/25 03:11:52;;;;;;;9.47;5.80;;;;;;;8.93;100.00;102612.75;5073203;28;20032;-36
2023/05/25 03:14:18;;;;;;;9.40;5.63;;;;;;;8.95;100.00;102623.34;5073582;28;20121;-36
2023/05/25 03:16:43;;;;;;;7.90;5.63;;;;;;;9.00;100.00;102623.66;5074156;28;20052;-36
2023/05/25 03:19:09;;;;;;;10.57;5.10;;;;;;;9.00;100.00;102632.59;5073266;28;20274;-36
2023/05/25 03:21:36;;;;;;;;;;;;;;;9.10;100.00;102637.78;5074593;28;20381;-36
2023/05/25 03:24:02;;;;;;;8.60;5.00;;;;;;;8.91;100.00;102630.94;5072970;28;19951;-37
2023/05/25 03:26:27;;;;;;;7.22;4.25;;;;;;;8.95;100.00;102634.97;5073304;28;20070;-36
2023/05/25 03:28:53;;;;;;;9.18;5.13;;;;;;;8.93;100.00;102645.13;5073222;28;20108;-36
2023/05/25 03:31:18;;;;;;;7.60;4.88;;;;;;;8.90;100.00;102633.84;5073242;28;20032;-37
2023/05/25 03:33:43;;;;;;;8.60;4.93;;;;;;;8.95;100.00;102643.06;5073147;28;20024;-37
2023/05/25 03:36:11;;;;;;;8.33;4.60;;;;;;;8.86;100.00;102646.81;5073468;28;20068;-37
2023/05/25 03:38:37;;;;;;;9.68;4.75;;;;;;;8.87;100.00;102655.75;5073053;28;20055;-36
2023/05/25 03:41:02;;;;;;;9.18;4.60;;;;;;;8.83;100.00;102651.72;5073054;28;20504;-36
2023/05/25 03:43:27;;;;;;;9.10;4.23;;;;;;;8.83;100.00;102655.25;5071901;28;20024;-36
2023/05/25 03:45:53;;;;;;;9.93;4.03;;;;;;;8.89;100.00;102656.44;5073671;28;20021;-36
2023/05/25 03:48:18;;;;;;;7.60;4.67;;;;;;;8.81;100.00;102656.47;5077045;28;20461;-37
2023/05/25 03:50:43;;;;;;;8.13;3.93;;;;;;;8.86;100.00;102654.91;5077065;28;20035;-36
2023/05/25 03:53:09;;;;;;;9.73;3.75;;;;;;;8.74;100.00;102653.63;5077260;28;20055;-36
2023/05/25 03:55:34;;;;;;;5.57;3.63;;;;;;;8.75;100.00;102664.25;5077264;28;20079;-36
2023/05/25 03:57:59;;;;;;;9.10;4.33;;;;;;;8.75;100.00;102666.94;5076392;28;20270;-36
2023/05/25 04:00:25;;;;;;;5.87;3.60;;;;;;;8.76;100.00;102668.63;5076777;28;20080;-37
2023/05/25 04:02:50;;;;;;;6.88;4.05;;;;;;;8.76;100.00;102667.78;5076229;28;20033;-36
2023/05/25 04:05:16;;;;;;;7.20;4.00;;;;;;;8.79;100.00;102655.81;5076788;28;20115;-36
2023/05/25 04:07:41;;;;;;;6.43;3.73;;;;;;;8.86;100.00;102663.03;5077273;28;20029;-37
2023/05/25 04:10:07;;;;;;;8.77;3.90;;;;;;;8.87;100.00;102653.06;5076783;28;20028;-36
2023/05/25 04:12:33;;;;;;;7.32;4.25;;;;;;;8.81;100.00;102654.59;5076302;28;20021;-37
2023/05/25 04:14:58;;;;;;;8.48;4.10;;;;;;;8.90;100.00;102660.81;5076600;28;20484;-37
2023/05/25 04:17:24;;;;;;;6.10;4.27;;;;;;;8.86;100.00;102660.31;5076325;28;20099;-36
2023/05/25 04:19:50;;;;;;;5.82;3.78;;;;;;;8.79;100.00;102656.66;5076391;28;20028;-36
2023/05/25 04:22:17;;;;;;;7.93;4.38;;;;;;;8.89;100.00;102669.94;5076437;28;20441;-37
2023/05/25 04:24:43;;;;;;;7.40;3.92;;;;;;;8.91;100.00;102663.31;5076033;28;20025;-36
2023/05/25 04:27:08;;;;;;;7.03;4.75;;;;;;;8.87;100.00;102659.28;5076096;28;20530;-36
2023/05/25 04:29:37;;;;;;;10.27;4.90;;;;;;;8.98;100.00;102671.59;5075984;28;20037;-36
2023/05/25 04:32:02;;;;;;;7.70;3.92;;;;;;;8.96;100.00;102660.94;5076576;28;20115;-36
2023/05/25 04:34:28;;;;;;;8.80;3.92;;;;;;;9.06;100.00;102662.59;5076174;28;20499;-36
2023/05/25 04:36:55;;;;;;;7.13;3.92;;;;;;;9.15;100.00;102672.31;5076547;28;20103;-36
2023/05/25 04:39:21;;;;;;;6.03;4.15;;;;;;;9.01;100.00;102663.13;5075706;28;20453;-36
2023/05/25 04:41:47;;;;;;;8.68;4.40;;;;;;;8.98;100.00;102647.31;5076653;28;20028;-37
2023/05/25 04:44:12;;;;;;;;;;;;;;;9.35;100.00;102687.06;5076749;28;20119;-37
2023/05/25 04:46:38;;;;;;;7.72;4.05;;;;;;;9.34;100.00;102682.69;5076305;28;19959;-37
2023/05/25 04:49:04;;;;;;;10.55;4.43;;;;;;;9.31;100.00;102674.91;5076192;28;20024;-37
2023/05/25 04:51:31;;;;;;;;;;;;;;;9.43;100.00;102678.91;5076374;28;20040;-36
2023/05/25 04:53:56;;;;;;;8.20;3.53;;;;;;;9.38;100.00;102675.91;5076078;28;19958;-36
2023/05/25 04:56:24;;;;;;;7.75;4.07;;;;;;;9.42;100.00;102684.47;5076428;28;20044;-37
2023/05/25 04:58:50;;;;;;;7.80;3.95;;;;;;;9.62;100.00;102688.41;5075598;28;20081;-36
2023/05/25 05:01:16;;;;;;;7.63;3.88;;;;;;;9.54;100.00;102692.00;5076012;28;20056;-36
2023/05/25 05:03:41;;;;;;;7.47;4.13;;;;;;;9.72;100.00;102690.88;5075704;28;20039;-36
2023/05/25 05:06:07;;;;;;;8.30;4.13;;;;;;;9.77;100.00;102686.59;5075959;28;20071;-36
2023/05/25 05:08:32;;;;;;;9.05;4.65;;;;;;;9.83;100.00;102701.25;5075322;28;20031;-36
2023/05/25 05:10:58;;;;;;;6.00;3.57;;;;;;;9.89;100.00;102694.28;5075610;28;20067;-36
2023/05/25 05:13:23;;;;;;;7.10;3.90;;;;;;;9.95;100.00;102691.66;5075242;28;20267;-37
2023/05/25 05:15:48;;;;;;;7.90;4.10;;;;;;;10.01;100.00;102693.66;5075492;28;20028;-36
2023/05/25 05:18:14;;;;;;;6.03;3.80;;;;;;;10.03;100.00;102694.31;5107742;28;20381;-36
2023/05/25 05:20:39;;;;;;;8.80;4.75;;;;;;;10.05;100.00;102695.00;5074727;28;20354;-36
2023/05/25 05:23:05;;;;;;;10.48;4.07;;;;;;;10.14;100.00;102697.59;5074966;28;20035;-37
2023/05/25 05:25:30;;;;;;;9.40;4.35;;;;;;;10.13;100.00;102693.22;5075281;28;20032;-36
2023/05/25 05:27:56;;;;;;;6.47;3.50;;;;;;;10.31;100.00;102710.00;5075443;28;20516;-36
2023/05/25 05:30:21;;;;;;;7.70;4.07;;;;;;;10.43;100.00;102700.38;5075256;28;20334;-36
2023/05/25 05:32:46;;;;;;;9.40;4.63;;;;;;;10.53;100.00;102706.38;5074519;28;20082;-36
2023/05/25 05:35:12;;;;;;;8.93;4.10;;;;;;;10.61;100.00;102704.63;5074182;28;20025;-37
2023/05/25 05:37:37;;;;;;;8.93;3.75;;;;;;;10.66;100.00;102713.00;5074698;28;20077;-36
2023/05/25 05:40:03;;;;;;;7.65;4.32;;;;;;;10.79;100.00;102713.22;5075169;28;20426;-36
2023/05/25 05:42:28;;;;;;;7.65;3.90;;;;;;;10.83;100.00;102719.91;5075384;28;20470;-37
2023/05/25 05:44:54;;;;;;;8.03;4.00;;;;;;;10.81;100.00;102716.56;5074353;28;20384;-37
2023/05/25 05:47:19;;;;;;;10.53;5.13;;;;;;;10.82;100.00;102715.53;5075025;28;20334;-36
2023/05/25 05:49:44;;;;;;;6.65;4.10;;;;;;;10.89;100.00;102721.88;5074799;28;20496;-37
2023/05/25 05:52:10;;;;;;;8.63;3.88;;;;;;;10.95;100.00;102723.00;5075030;28;20123;-35
2023/05/25 05:54:35;;;;;;;8.93;4.35;;;;;;;11.08;100.00;102728.59;5074629;28;20483;-35
2023/05/25 05:57:01;;;;;;;9.27;4.27;;;;;;;11.12;100.00;102729.88;5074611;28;20103;-35
2023/05/25 05:59:26;;;;;;;9.60;4.53;;;;;;;11.01;100.00;102730.34;5074025;28;20298;-37
2023/05/25 06:01:52;;;;;;;6.35;3.72;;;;;;;11.18;100.00;102736.41;5073967;28;20032;-36
2023/05/25 06:04:18;;;;;;;6.30;3.42;;;;;;;11.31;100.00;102745.53;5073942;28;20028;-36
2023/05/25 06:06:44;;;;;;;8.73;4.25;;;;;;;11.30;100.00;102737.59;5074229;28;20025;-36
2023/05/25 06:09:09;;;;;;;;;;;;;;;11.45;100.00;102751.13;5073937;28;20111;-36
2023/05/25 06:11:36;;;;;;;7.38;4.05;;;;;;;11.44;100.00;102744.84;5074342;28;19962;-36
2023/05/25 06:14:02;;;;;;;7.63;3.85;;;;;;;11.47;100.00;102736.38;5074008;28;20361;-36
2023/05/25 06:16:28;;;;;;;5.57;3.67;;;;;;;11.62;100.00;102746.31;5074275;28;20021;-36
2023/05/25 06:18:53;;;;;;;8.30;4.07;;;;;;;11.63;100.00;102731.72;5074205;28;20443;-36
2023/05/25 06:21:19;;;;;;;8.85;4.47;;;;;;;11.68;100.00;102737.41;5074490;28;20021;-36
2023/05/25 06:23:46;;;;;;;7.03;3.83;;;;;;;11.79;100.00;102745.03;5073811;28;20422;-36
2023/05/25 06:26:11;;;;;;;8.07;3.85;;;;;;;11.76;100.00;102743.56;5074135;28;20381;-36
2023/05/25 06:28:37;;;;;;;7.88;3.95;;;;;;;11.94;100.00;102751.25;5073812;28;20029;-36
2023/05/25 06:31:02;;;;;;;9.60;4.20;;;;;;;11.97;100.00;102752.75;5073811;28;20039;-36
2023/05/25 06:33:27;;;;;;;8.00;3.55;;;;;;;12.16;100.00;102752.09;5073424;28;20090;-36
2023/05/25 06:35:55;;;;;;;7.97;4.03;;;;;;;12.29;100.00;102756.78;5074618;28;20103;-36
2023/05/25 06:38:20;;;;;;;7.65;3.88;;;;;;;12.34;100.00;102752.44;5073377;28;20060;-36
2023/05/25 06:40:46;;;;;;;8.65;4.35;;;;;;;12.24;100.00;102768.22;5074331;28;20063;-36
2023/05/25 06:43:11;;;;;;;9.90;4.50;;;;;;;12.33;100.00;102764.34;5073389;28;20151;-36
2023/05/25 06:45:36;;;;;;;9.45;3.80;;;;;;;12.38;100.00;102769.19;5073955;28;20489;-36
2023/05/25 06:48:02;;;;;;;5.83;3.60;;;;;;;12.47;100.00;102756.31;5073682;28;20039;-36
2023/05/25 06:50:27;;;;;;;6.95;3.90;;;;;;;12.69;100.00;102768.81;5073614;28;20255;-36
2023/05/25 06:52:53;;;;;;;6.07;3.33;;;;;;;12.73;100.00;102772.78;5073594;28;20070;-36
2023/05/25 06:55:18;;;;;;;7.93;3.40;;;;;;;12.94;100.00;102765.63;5073886;28;20032;-36
2023/05/25 06:57:43;;;;;;;7.90;3.67;;;;;;;13.12;100.00;102761.31;5074119;28;20332;-36
2023/05/25 07:00:12;;;;;;;6.20;3.50;;;;;;;13.20;100.00;102773.06;5073954;28;20299;-36
2023/05/25 07:02:38;;;;;;;8.88;3.63;;;;;;;13.27;99.25;102780.22;5073403;28;20289;-36
2023/05/25 07:05:04;;;;;;;;;;;;;;;13.36;98.85;102783.59;5074240;28;20025;-36
2023/05/25 07:07:30;;;;;;;7.35;3.45;;;;;;;13.00;96.63;102778.38;5074286;28;19912;-37
2023/05/25 07:09:56;;;;;;;;;;;;;;;13.07;97.51;102780.09;5074073;28;20032;-36
2023/05/25 07:12:21;;;;;;;7.63;3.58;;;;;;;12.86;97.82;102782.91;5073892;28;19974;-36
2023/05/25 07:14:47;;;;;;;7.72;3.45;;;;;;;12.86;98.64;102782.91;5072545;28;20021;-36
2023/05/25 07:17:13;;;;;;;9.20;3.55;;;;;;;12.88;98.80;102781.69;5073096;28;20089;-36
2023/05/25 07:19:39;;;;;;;;;;;;;;;13.00;98.56;102776.50;5074320;28;20024;-36
2023/05/25 07:22:04;;;;;;;10.73;4.22;;;;;;;12.97;100.00;102785.03;5075894;28;19912;-36
2023/05/25 07:24:29;;;;;;;8.57;3.95;;;;;;;12.85;98.94;102773.09;5077631;28;20476;-36
2023/05/25 07:26:55;;;;;;;8.25;3.67;;;;;;;13.06;100.00;102772.97;5077639;28;20031;-36
2023/05/25 07:29:20;;;;;;;7.72;3.40;;;;;;;13.11;99.43;102775.94;5076836;28;20533;-36
2023/05/25 07:31:45;;;;;;;;;;;;;;;13.30;100.00;102782.53;5077379;28;20036;-36
2023/05/25 07:34:11;;;;;;;6.80;3.40;;;;;;;13.40;99.68;102777.56;5077151;28;19912;-36
2023/05/25 07:36:36;;;;;;;6.53;3.42;;;;;;;13.45;96.79;102787.84;5077054;28;20048;-38
2023/05/25 07:39:02;;;;;;;11.87;4.60;;;;;;;13.31;95.95;102784.22;5076699;28;20021;-36
2023/05/25 07:41:27;;;;;;;9.60;3.70;;;;;;;13.29;94.92;102793.63;5076587;28;20416;-36
2023/05/25 07:43:52;;;;;;;9.00;3.92;;;;;;;13.30;95.91;102789.84;5077175;28;20044;-36
2023/05/25 07:46:21;;;;;;;7.22;2.85;;;;;;;13.51;96.01;102787.00;5077227;28;20158;-36
2023/05/25 07:48:46;;;;;;;6.43;3.00;;;;;;;13.69;93.69;102791.91;5075852;28;20081;-36
2023/05/25 07:51:11;;;;;;;;;;;;;;;13.80;93.74;102790.47;5077400;28;20119;-36
2023/05/25 07:53:36;;;;;;;11.00;3.83;;;;;;;13.75;91.41;102787.50;5077098;28;19908;-36
2023/05/25 07:56:02;;;;;;;7.97;3.33;;;;;;;13.89;91.61;102783.78;5075887;28;20286;-36
2023/05/25 07:58:27;;;;;;;9.10;3.53;;;;;;;14.07;92.95;102796.81;5076162;28;20275;-36
2023/05/25 08:00:53;;;;;;;10.65;3.47;;;;;;;14.11;92.00;102800.78;5076900;28;20045;-36
2023/05/25 08:03:19;;;;;;;10.43;3.55;;;;;;;14.34;91.84;102803.09;5076179;28;20032;-36
2023/05/25 08:05:44;;;;;;;;;;;;;;;14.52;90.11;102799.78;5077709;28;20051;-36
2023/05/25 08:08:10;;;;;;;9.90;3.65;;;;;;;14.55;89.36;102797.50;5076459;28;20331;-36
2023/05/25 08:10:35;;;;;;;11.57;3.88;;;;;;;14.65;88.32;102802.53;5076196;28;20037;-36
2023/05/25 08:13:00;;;;;;;8.40;3.60;;;;;;;14.51;85.73;102792.69;5076434;28;20025;-36
2023/05/25 08:15:26;;;;;;;7.43;3.42;;;;;;;14.52;86.91;102806.06;5076020;28;20251;-36
2023/05/25 08:17:51;;;;;;;;;;;;;;;14.61;88.00;102802.09;5077046;28;20063;-36
2023/05/25 08:20:17;;;;;;;22.58;3.67;;;;;;;14.77;87.65;102791.81;5076762;28;19916;-36
2023/05/25 08:22:42;;;;;;;6.93;3.28;;;;;;;14.92;84.88;102803.31;5076160;28;20028;-36
2023/05/25 08:25:08;;;;;;;10.55;3.13;;;;;;;14.81;83.43;102796.63;5076732;28;20028;-36
2023/05/25 08:27:34;;;;;;;7.68;3.10;;;;;;;14.72;82.86;102800.63;5076945;28;20028;-36
2023/05/25 08:29:59;;;;;;;;;;;;;;;14.93;84.06;102807.69;5076778;28;20063;-36
2023/05/25 08:32:25;;;;;;;8.07;2.85;;;;;;;15.20;85.03;102811.22;5075614;28;19955;-36
2023/05/25 08:34:50;;;;;;;;;;;;;;;15.33;82.68;102810.34;5075930;28;20028;-36
2023/05/25 08:37:16;;;;;;;6.97;2.75;;;;;;;15.46;80.12;102802.09;5076548;28;19919;-36
2023/05/25 08:39:42;;;;;;;;;;;;;;;15.52;83.22;102803.97;5077125;28;20365;-36
2023/05/25 08:42:08;;;;;;;7.70;2.85;;;;;;;15.66;80.57;102807.47;5075937;28;19919;-36
2023/05/25 08:44:34;;;;;;;;;;;;;;;15.81;79.86;102820.84;5077146;28;20028;-36
2023/05/25 08:47:05;;;;;;;6.45;2.53;;;;;;;15.80;79.32;102813.72;5075571;28;19912;-36
2023/05/25 08:49:35;;;;;;;8.48;2.75;;;;;;;15.92;79.33;102810.09;5076013;28;20056;-36
2023/05/25 08:52:01;;;;;;;7.50;2.63;;;;;;;15.72;78.83;102805.81;5076014;28;20042;-36
2023/05/25 08:54:29;;;;;;;;;;;;;;;15.79;77.57;102817.50;5076297;28;20457;-36
2023/05/25 08:57:04;;;;;;;14.68;3.15;;;;;;;15.43;78.54;102806.09;5075570;28;19947;-36
2023/05/25 08:59:42;;;;;;;9.10;3.20;;;;;;;15.47;78.64;102814.69;5075632;28;20072;-36
2023/05/25 09:02:20;;;;;;;7.68;2.83;;;;;;;15.52;78.36;102806.69;5075212;28;20476;-36
2023/05/25 09:04:46;;;;;;;6.15;3.22;;;;;;;15.58;78.25;102818.63;5075392;28;20035;-36
2023/05/25 09:07:12;;;;;;;7.28;2.85;;;;;;;15.49;78.59;102818.03;5075103;28;20024;-36
2023/05/25 09:09:39;;;;;;;7.55;2.63;;;;;;;15.48;78.64;102831.88;5074987;28;20047;-36
2023/05/25 09:12:05;;;;;;;6.93;3.13;;;;;;;15.38;79.50;102816.00;5075275;28;20056;-36
2023/05/25 09:14:33;;;;;;;7.38;2.60;;;;;;;15.26;79.35;102817.69;5075187;28;20028;-36
2023/05/25 09:16:59;;;;;;;6.80;2.60;;;;;;;15.33;80.18;102834.88;5075982;28;20024;-36
2023/05/25 09:19:25;;;;;;;6.95;2.55;;;;;;;15.27;78.77;102830.25;5075054;28;20035;-36
2023/05/25 09:21:50;;;;;;;4.93;2.63;;;;;;;15.29;79.54;102834.47;5075360;28;20025;-36
2023/05/25 09:24:16;;;;;;;;;;;;;;;15.42;81.19;102834.44;5075144;28;20029;-36
2023/05/25 09:26:45;;;;;;;9.35;2.83;;;;;;;15.25;80.80;102832.38;5075311;28;20017;-36
2023/05/25 09:29:12;;;;;;;7.60;3.30;;;;;;;15.00;80.70;102833.06;5074846;28;20029;-37
2023/05/25 09:31:38;;;;;;;6.95;3.05;;;;;;;15.03;81.68;102835.38;5075717;28;20033;-37
2023/05/25 09:34:10;;;;;;;7.55;2.83;;;;;;;15.05;81.55;102833.25;5074620;28;20028;-36
2023/05/25 09:36:39;;;;;;;6.80;2.65;;;;;;;15.07;83.19;102831.13;5074201;28;20032;-36
2023/05/25 09:39:09;;;;;;;10.27;2.90;;;;;;;15.13;80.41;102838.50;5074570;28;20029;-36
2023/05/25 09:41:35;;;;;;;8.18;3.25;;;;;;;15.17;80.65;102836.16;5074947;28;20028;-36
2023/05/25 09:44:01;;;;;;;6.82;2.00;;;;;;;15.10;79.57;102824.44;5073427;28;20086;-36
2023/05/25 09:46:27;;;;;;;;;;;;;;;15.28;79.92;102838.25;5074884;28;20036;-36
2023/05/25 09:48:52;;;;;;;8.27;2.30;;;;;;;15.17;76.78;102836.16;5074500;28;19912;-36
2023/05/25 09:51:18;;;;;;;;;;;;;;;15.33;78.12;102840.31;5074955;28;20024;-36
2023/05/25 09:53:44;;;;;;;5.88;2.10;;;;;;;15.34;76.69;102840.09;5074062;28;19919;-36
2023/05/25 09:56:12;;;;;;;;;;;;;;;15.38;77.37;102837.78;5073630;28;20029;-36
2023/05/25 09:58:37;;;;;;;13.55;2.92;;;;;;;15.40;78.20;102833.78;5074666;28;19919;-36
2023/05/25 10:01:03;;;;;;;5.60;2.53;;;;;;;15.56;76.15;102837.09;5074656;28;20056;-36
2023/05/25 10:03:29;;;;;;;8.80;3.00;;;;;;;15.50;76.30;102827.88;5075137;28;20117;-36
2023/05/25 10:05:55;;;;;;;;;;;;;;;15.78;77.46;102833.03;5074652;28;20411;-36
2023/05/25 10:08:23;;;;;;;6.55;2.50;;;;;;;15.90;73.07;102844.09;5073813;28;19919;-36
2023/05/25 10:10:49;;;;;;;7.82;2.47;;;;;;;16.04;74.01;102840.22;5073628;28;20512;-36
2023/05/25 10:13:21;;;;;;;8.77;2.75;;;;;;;16.01;73.09;102824.31;5074295;28;20024;-37
2023/05/25 10:15:47;;;;;;;10.05;2.97;;;;;;;16.22;72.80;102848.53;5073171;28;20044;-36
2023/05/25 10:18:14;;;;;;;5.70;2.13;;;;;;;16.30;71.28;102841.97;5073788;28;20035;-36
2023/05/25 10:20:42;;;;;;;6.03;2.15;;;;;;;16.46;69.42;102835.97;5073928;28;20033;-36
2023/05/25 10:23:16;;;;;;;9.48;2.45;;;;;;;16.50;70.10;102839.09;5074228;28;20064;-36
2023/05/25 10:25:47;;;;;;;5.50;2.20;;;;;;;16.77;69.21;102836.16;5073899;28;20469;-36
2023/05/25 10:28:27;;;;;;;8.40;3.05;;;;;;;16.80;69.55;102842.00;5074106;28;20024;-36
2023/05/25 10:30:54;;;;;;;8.82;2.30;;;;;;;16.80;68.29;102838.44;5074164;28;20024;-36
2023/05/25 10:33:20;;;;;;;4.55;1.92;;;;;;;16.68;69.33;102839.13;5073763;28;20085;-36
2023/05/25 10:35:45;;;;;;;;;;;;;;;16.84;71.36;102842.41;5073816;28;20024;-36
2023/05/25 10:38:11;;;;;;;10.80;3.10;;;;;;;16.59;68.93;102845.09;5073427;28;19908;-36
2023/05/25 10:40:37;;;;;;;7.38;2.65;;;;;;;16.53;68.86;102832.34;5073609;28;20039;-36
2023/05/25 10:43:03;;;;;;;;;;;;;;;16.75;70.23;102843.75;5073764;28;20405;-36
2023/05/25 10:45:29;;;;;;;6.63;2.50;;;;;;;16.67;69.05;102842.09;5073270;28;19916;-36
2023/05/25 10:47:54;;;;;;;;;;;;;;;16.75;69.33;102849.22;5074930;28;20024;-37
2023/05/25 10:50:28;;;;;;;6.72;2.20;;;;;;;16.89;72.28;102845.31;5073858;28;19916;-37
2023/05/25 10:53:01;;;;;;;7.25;2.65;;;;;;;17.19;67.99;102843.50;5073593;28;20020;-36
2023/05/25 10:55:31;;;;;;;5.13;2.05;;;;;;;17.59;67.98;102834.00;5073380;28;20024;-36
2023/05/25 10:58:07;;;;;;;6.82;3.05;;;;;;;17.96;66.83;102834.81;5073450;28;20025;-37
2023/05/25 11:00:33;;;;;;;5.97;2.22;;;;;;;18.01;66.17;102830.31;5073534;28;20465;-38
2023/05/25 11:02:58;;;;;;;;;;;;;;;17.96;64.07;102834.81;5073503;28;20060;-35
2023/05/25 11:05:26;;;;;;;6.83;2.40;;;;;;;17.65;65.82;102833.91;5073211;28;19926;-35
2023/05/25 11:07:52;;;;;;;6.75;2.90;;;;;;;17.62;66.22;102836.28;5071210;28;20282;-35
2023/05/25 11:10:46;;;;;;;8.85;3.03;;;;;;;17.51;67.29;102832.41;5072492;28;20492;-36
2023/05/25 11:13:43;;;;;;;7.25;2.60;;;;;;;17.35;67.32;102828.41;5053339;28;20032;-35
2023/05/25 11:16:21;;;;;;;7.72;2.88;;;;;;;17.21;66.93;102832.34;5053082;28;20045;-36
2023/05/25 11:18:50;;;;;;;7.32;2.97;;;;;;;17.22;66.70;102831.28;5062814;28;20060;-36
2023/05/25 11:21:39;;;;;;;7.68;2.78;;;;;;;17.13;68.14;102821.69;5072607;28;20044;-36
2023/05/25 11:24:11;;;;;;;6.43;2.63;;;;;;;17.21;67.33;102824.13;5072790;28;20484;-36
2023/05/25 11:26:54;;;;;;;5.40;2.08;;;;;;;17.29;68.59;102834.78;5072971;28;20502;-36
2023/05/25 11:29:25;;;;;;;9.88;2.67;;;;;;;17.24;66.36;102818.22;5072908;28;20033;-36